Latest Weather Observations for Holsworthy

IDN60901

Issued at 8:32 am EDT Saturday 20 December 2014 (issued every 10 minutes, with the page automatically refreshed every 10 minutes)

About weather observations | Map of Sydney area stations | Latest observations for Sydney area | Other Formats
Station Details ID: 066161 Name: HOLSWORTHY AERODROME AWS Lat: -33.99 Lon: 150.95 Height: 68.16 m
Data from the previous 72 hours. | See also: Recent months at Holsworthy
Date/Time
EDT
Tmp

°C
App
Tmp
°C
Dew
Point
°C
Rel
Hum
%
Delta-T

°C
Wind Press
QNH
hPa
Press
MSL
hPa
Rain
since
9 am
mm
Dir
 
Spd
km/h
Gust
km/h
Spd
kts
Gust
kts
20/08:30am 19.4 18.1 11.4 60 4.4 SE 9 17 5 9 1018.7 1018.4 0.0
20/08:00am 18.9 17.4 11.9 64 3.9 SSE 11 13 6 7 1018.6 1018.3 0.0
20/07:30am 17.5 17.0 12.8 74 2.6 S 7 9 4 5 1018.3 1018.0 0.0
20/07:00am 16.4 16.1 12.6 78 2.1 S 6 7 3 4 1018.1 1017.8 0.0
20/06:30am 15.7 15.1 12.3 80 1.9 S 7 9 4 5 1017.8 1017.5 0.0
20/05:30am 15.5 14.4 12.1 80 1.9 S 9 11 5 6 1017.6 1017.3 0.0
20/05:00am 15.9 14.8 11.9 77 2.2 S 9 11 5 6 1017.5 1017.2 0.0
20/04:30am 16.3 15.2 12.1 76 2.3 S 9 13 5 7 1017.4 1017.1 0.0
20/04:00am 16.5 15.4 11.9 74 2.5 S 9 13 5 7 1017.3 1017.0 0.0
20/03:00am 16.9 16.1 11.6 71 2.9 S 7 9 4 5 1017.5 1017.2 0.0
20/02:30am 16.9 16.3 11.8 72 2.8 S 6 7 3 4 1017.6 1017.3 0.0
20/01:30am 17.4 16.8 11.7 69 3.1 S 6 9 3 5 1018.1 1017.8 0.0
20/01:00am 17.5 16.8 11.3 67 3.4 SSW 6 6 3 3 1018.4 1018.1 0.0
20/12:30am 17.7 17.7 11.3 66 3.5 S 2 7 1 4 1018.7 1018.4 0.0
 
Date/Time
EDT
Tmp

°C
App
Tmp
°C
Dew
Point
°C
Rel
Hum
%
Delta-T

°C
Wind Press
QNH
hPa
Press
MSL
hPa
Rain
since
9 am
mm
Dir
 
Spd
km/h
Gust
km/h
Spd
kts
Gust
kts
19/11:30pm 18.1 17.0 10.5 61 4.1 SSE 7 11 4 6 1019.0 1018.7 0.0
19/11:00pm 18.2 16.7 10.6 61 4.1 SE 9 11 5 6 1019.1 1018.8 0.0
19/10:30pm 18.4 16.6 10.7 61 4.2 SE 11 17 6 9 1018.8 1018.5 0.0
19/10:00pm 18.5 17.1 10.8 61 4.2 SE 9 15 5 8 1018.5 1018.2 0.0
19/09:30pm 18.5 16.8 11.1 62 4.0 SE 11 19 6 10 1018.1 1017.8 0.0
19/09:00pm 18.6 15.6 10.7 60 4.3 SE 17 24 9 13 1017.8 1017.5 0.0
19/08:30pm 18.7 15.2 10.3 58 4.5 SE 19 26 10 14 1017.5 1017.2 0.0
19/08:00pm 18.7 15.0 10.0 57 4.6 SE 20 28 11 15 1017.1 1016.8 0.0
19/07:30pm 18.8 14.6 9.8 56 4.8 SE 22 32 12 17 1016.5 1016.2 0.0
19/07:00pm 18.9 14.2 9.1 53 5.1 SE 24 33 13 18 1015.8 1015.5 0.0
19/06:30pm 19.1 15.4 10.1 56 4.8 SE 20 32 11 17 1015.1 1014.8 0.0
19/06:00pm 19.5 15.6 10.8 57 4.7 SE 22 30 12 16 1014.5 1014.2 0.0
19/05:30pm 19.9 15.3 11.1 57 4.8 SE 26 33 14 18 1013.8 1013.6 0.0
19/05:00pm 20.5 15.8 10.6 53 5.4 SSE 26 37 14 20 1013.6 1013.4 0.0
19/04:30pm 21.1 16.8 10.6 51 5.7 SE 24 35 13 19 1013.2 1013.0 0.0
19/04:00pm 21.4 16.7 9.3 46 6.5 SE 24 37 13 20 1013.1 1012.9 0.0
19/03:30pm 21.6 17.2 10.4 49 6.1 SSE 24 33 13 18 1013.1 1012.9 0.0
19/03:00pm 21.6 17.7 10.7 50 6.0 ESE 22 32 12 17 1012.9 1012.7 0.0
19/02:30pm 21.6 17.4 11.0 51 5.9 SE 24 35 13 19 1012.9 1012.7 0.0
19/02:00pm 21.6 17.6 10.4 49 6.1 ESE 22 33 12 18 1013.1 1012.9 0.0
19/01:30pm 21.0 16.3 10.8 52 5.6 ESE 26 37 14 20 1013.3 1013.1 0.0
19/01:00pm 21.4 17.7 10.3 49 6.1 SE 20 28 11 15 1013.2 1013.0 0.0
19/12:30pm 22.1 18.3 11.2 50 6.1 SE 22 32 12 17 1013.2 1013.0 0.0
19/12:00pm 22.0 17.9 11.4 51 5.9 SE 24 35 13 19 1013.2 1013.0 0.0
19/11:30am 20.6 17.0 11.8 57 4.9 SSE 22 30 12 16 1013.3 1013.1 0.0
19/11:00am 21.5 17.9 11.8 54 5.4 SSE 22 33 12 18 1013.1 1012.9 0.0
19/10:30am 21.0 18.0 12.4 58 4.9 SSE 20 32 11 17 1013.2 1013.0 0.0
19/10:00am 21.3 18.9 12.7 58 4.9 SSE 17 26 9 14 1012.9 1012.7 0.0
19/09:30am 20.3 16.5 11.2 56 5.0 SSE 22 32 12 17 1013.0 1012.8 0.0
19/09:00am 21.0 18.0 12.7 59 4.7 SSE 20 32 11 17 1012.8 1012.6 0.0
19/08:30am 19.8 16.8 12.6 63 4.1 S 20 30 11 16 1012.5 1012.3 0.0
19/08:00am 19.1 14.6 12.6 66 3.7 SSE 28 41 15 22 1012.2 1012.0 0.0
19/07:30am 18.6 14.9 12.6 68 3.4 SSE 24 37 13 20 1011.8 1011.6 0.0
19/07:00am 18.1 14.9 13.0 72 2.9 SSE 22 37 12 20 1011.2 1011.0 0.0
19/06:30am 17.3 14.1 13.0 76 2.4 SSE 22 39 12 21 1010.9 1010.7 0.0
19/06:00am 17.0 13.9 13.3 79 2.1 SSE 22 33 12 18 1010.2 1010.0 0.0
19/05:30am 17.1 13.7 13.8 81 1.9 S 24 37 13 20 1009.7 1009.4 0.0
19/05:00am 17.4 14.7 14.7 84 1.6 S 22 35 12 19 1009.2 1008.9 0.0
19/04:30am 17.3 15.1 14.9 86 1.4 S 20 32 11 17 1008.8 1008.5 0.0
19/04:00am 17.8 18.9 17.2 96 0.4 WSW 7 9 4 5 1007.8 1007.5 0.0
19/03:30am 17.7 18.7 16.9 95 0.5 WSW 7 7 4 4 1007.6 1007.3 0.0
19/03:00am 18.4 19.4 17.8 96 0.4 WSW 9 13 5 7 1007.2 1006.9 0.0
19/02:30am 18.4 19.0 17.8 96 0.4 SW 11 13 6 7 1006.8 1006.5 0.0
19/02:00am 18.8 19.2 18.1 96 0.4 SW 13 15 7 8 1006.5 1006.2 0.0
19/01:30am 18.8 19.3 18.3 97 0.3 SW 13 17 7 9 1006.5 1006.2 0.0
19/01:00am 17.6 18.7 16.5 93 0.7 WSW 6 9 3 5 1006.5 1006.2 0.0
19/12:30am 18.1 19.3 16.8 92 0.8 SSW 6 7 3 4 1006.7 1006.4 0.0
19/12:00am 19.6 22.1 18.1 91 0.9 SSE 2 7 1 4 1006.7 1006.4 0.0
 
Date/Time
EDT
Tmp

°C
App
Tmp
°C
Dew
Point
°C
Rel
Hum
%
Delta-T

°C
Wind Press
QNH
hPa
Press
MSL
hPa
Rain
since
9 am
mm
Dir
 
Spd
km/h
Gust
km/h
Spd
kts
Gust
kts
18/11:30pm 20.0 22.2 18.3 90 1.1 SSE 4 7 2 4 1006.8 1006.5 0.0
18/11:00pm 20.6 22.7 18.9 90 1.1 SSE 6 9 3 5 1006.7 1006.4 0.0
18/10:30pm 20.9 23.0 19.0 89 1.2 SE 6 9 3 5 1006.7 1006.4 0.0
18/10:00pm 21.5 23.2 19.4 88 1.3 SE 9 11 5 6 1006.6 1006.3 0.0
18/09:30pm 21.9 23.7 19.5 86 1.5 SE 9 11 5 6 1006.4 1006.1 0.0
18/09:00pm 22.4 24.2 19.6 84 1.8 E 9 11 5 6 1006.1 1005.8 0.0
18/08:30pm 22.7 24.5 19.5 82 2.0 E 9 15 5 8 1005.8 1005.5 0.0
18/08:00pm 23.3 23.4 19.2 78 2.6 ENE 17 22 9 12 1005.6 1005.3 0.0
18/07:30pm 24.0 24.5 19.3 75 3.0 E 15 24 8 13 1005.3 1005.0 0.0
18/07:00pm 24.8 25.3 19.2 71 3.6 ENE 15 20 8 11 1004.9 1004.6 0.0
18/06:30pm 25.4 25.6 19.3 69 3.9 E 17 24 9 13 1004.4 1004.1 0.0
18/06:00pm 25.9 26.2 18.8 65 4.6 ENE 15 20 8 11 1004.1 1003.8 0.0
18/05:30pm 26.5 27.7 19.1 64 4.8 SE 11 19 6 10 1003.9 1003.6 0.0
18/05:00pm 26.0 26.4 18.2 62 5.0 E 13 20 7 11 1004.0 1003.7 0.0
18/04:30pm 25.6 25.2 18.0 63 4.8 E 17 22 9 12 1004.4 1004.1 0.0
18/04:00pm 26.3 25.3 17.9 60 5.3 E 20 26 11 14 1004.6 1004.3 0.0
18/03:30pm 25.4 24.8 17.6 62 4.9 ENE 17 24 9 13 1005.2 1004.9 0.0
18/03:00pm 26.0 26.3 17.9 61 5.1 NE 13 20 7 11 1005.5 1005.2 0.0
18/02:30pm 25.6 25.6 18.0 63 4.8 NNE 15 20 8 11 1005.9 1005.6 0.0
18/02:00pm 24.5 23.7 17.2 63 4.5 ENE 17 26 9 14 1006.3 1006.0 0.0
18/01:30pm 25.1 24.5 17.6 63 4.7 NE 17 26 9 14 1006.6 1006.3 0.0
18/01:00pm 24.1 22.8 16.9 64 4.5 NNE 19 26 10 14 1007.0 1006.7 0.0
18/12:30pm 23.8 22.3 16.8 65 4.3 NNE 20 33 11 18 1007.6 1007.3 0.0
18/12:00pm 22.8 22.3 16.8 69 3.7 NE 15 22 8 12 1008.1 1007.8 0.0
18/11:30am 22.8 22.3 16.8 69 3.7 NE 15 20 8 11 1008.4 1008.1 0.0
18/11:00am 22.4 22.3 16.9 71 3.4 NNE 13 20 7 11 1009.1 1008.8 0.0
18/10:30am 22.3 23.0 17.0 72 3.3 N 9 15 5 8 1009.4 1009.1 0.0
18/10:00am 21.1 22.1 16.3 74 2.9 W 6 11 3 6 1009.8 1009.5 0.0
18/09:30am 19.1 19.8 15.6 80 2.1 NW 6 7 3 4 1010.4 1010.2 0.0
18/09:00am 18.7 19.4 15.6 82 1.8 WSW 6 9 3 5 1010.5 1010.3 0.0
18/08:30am 17.8 17.4 15.2 85 1.5 WSW 11 15 6 8 1010.5 1010.3 0.0
18/08:00am 17.3 16.5 15.1 87 1.3 WSW 13 17 7 9 1010.8 1010.6 0.0
18/07:30am 17.1 17.1 15.1 88 1.2 WSW 9 11 5 6 1010.7 1010.5 0.0
18/07:00am 17.2 17.1 15.0 87 1.3 WSW 9 11 5 6 1010.4 1010.2 0.0
18/06:30am 17.1 16.6 14.9 87 1.3 WSW 11 13 6 7 1010.1 1009.8 0.0
18/06:00am 17.0 16.8 14.6 86 1.4 WSW 9 13 5 7 1009.7 1009.4 0.0
18/05:30am 16.9 16.3 14.5 86 1.4 WSW 11 13 6 7 1009.6 1009.3 0.0
18/05:00am 16.9 16.6 14.5 86 1.4 SW 9 11 5 6 1009.3 1009.0 0.0
18/04:30am 17.0 17.2 14.6 86 1.4 WSW 7 9 4 5 1009.2 1008.9 0.0
18/04:00am 17.1 17.3 14.6 85 1.4 SW 7 9 4 5 1009.1 1008.8 0.0
18/03:30am 17.0 18.4 14.3 84 1.5 CALM 0 0 0 0 1009.4 1009.1 0.0
18/03:00am 17.2 18.7 14.7 85 1.4 CALM 0 0 0 0 1010.2 1010.0 0.0
18/02:30am 17.0 17.2 14.3 84 1.5 SSW 6 9 3 5 1010.4 1010.2 0.0
18/02:00am 17.1 16.8 14.4 84 1.6 WSW 9 11 5 6 1010.3 1010.1 0.0
18/01:30am 17.2 17.4 14.3 83 1.7 SW 6 7 3 4 1010.7 1010.5 0.0
18/01:00am 17.4 17.7 14.5 83 1.7 WSW 6 7 3 4 1011.1 1010.9 0.0
18/12:30am 17.7 17.9 14.2 80 2.0 ENE 6 11 3 6 1011.3 1011.1 0.0
18/12:00am 18.0 17.0 13.5 75 2.6 ENE 11 17 6 9 1011.4 1011.2 0.0
 
Date/Time
EDT
Tmp

°C
App
Tmp
°C
Dew
Point
°C
Rel
Hum
%
Delta-T

°C
Wind Press
QNH
hPa
Press
MSL
hPa
Rain
since
9 am
mm
Dir
 
Spd
km/h
Gust
km/h
Spd
kts
Gust
kts
17/11:30pm 18.5 18.9 12.5 68 3.4 ESE 2 7 1 4 1011.5 1011.3 0.0
17/11:00pm 18.3 18.3 12.3 68 3.3 SSE 4 7 2 4 1011.6 1011.4 0.0
17/10:30pm 18.5 18.1 12.3 67 3.5 SE 6 7 3 4 1011.6 1011.4 0.0
17/10:00pm 18.6 17.4 11.7 64 3.8 E 9 13 5 7 1011.9 1011.7 0.0
17/09:30pm 18.5 17.4 12.0 66 3.6 E 9 17 5 9 1011.5 1011.3 0.0
17/09:00pm 18.5 16.7 12.0 66 3.6 ESE 13 19 7 10 1011.3 1011.1 0.0
17/08:30pm 18.5 16.3 12.0 66 3.6 ESE 15 22 8 12 1011.2 1011.0 0.0
17/08:00pm 18.6 15.6 12.6 68 3.4 SE 20 28 11 15 1010.8 1010.6 0.0
17/07:30pm 18.9 16.4 12.4 66 3.6 ESE 17 24 9 13 1010.0 1009.7 0.0
17/07:00pm 19.0 16.9 12.3 65 3.7 ESE 15 20 8 11 1009.5 1009.2 0.0
17/06:30pm 19.2 16.8 12.5 65 3.8 SE 17 24 9 13 1008.9 1008.6 0.0
17/06:00pm 19.2 16.8 12.5 65 3.8 SE 17 22 9 12 1008.5 1008.2 0.0
17/05:30pm 19.4 16.5 12.4 64 3.9 SE 19 28 10 15 1008.3 1008.0 0.0
17/05:00pm 19.5 16.5 12.5 64 3.9 SE 20 26 11 14 1008.1 1007.8 0.0
17/04:30pm 19.6 15.8 12.4 63 4.0 SE 24 32 13 17 1008.1 1007.8 0.0
17/04:00pm 19.8 16.3 12.1 61 4.3 SE 22 32 12 17 1008.1 1007.8 0.0
17/03:30pm 20.2 16.6 11.9 59 4.6 ESE 22 32 12 17 1007.9 1007.6 0.0
17/03:00pm 20.7 16.9 12.4 59 4.7 SE 24 35 13 19 1007.9 1007.6 0.0
17/02:30pm 20.9 17.8 12.1 57 4.9 SE 20 32 11 17 1007.9 1007.6 0.0
17/02:00pm 21.2 17.7 12.1 56 5.1 SE 22 32 12 17 1007.8 1007.5 0.0
17/01:30pm 21.9 18.2 12.7 56 5.2 SE 24 30 13 16 1007.8 1007.5 0.0
17/01:00pm 20.9 16.3 12.3 58 4.9 SE 28 39 15 21 1007.8 1007.5 0.0
17/12:30pm 21.9 18.5 12.5 55 5.3 SE 22 30 12 16 1007.9 1007.6 0.0
17/12:00pm 21.4 17.1 12.0 55 5.3 SE 26 35 14 19 1007.8 1007.5 0.0
17/11:30am 21.2 18.1 12.3 57 5.0 SSE 20 32 11 17 1007.7 1007.4 0.0
17/11:00am 20.8 17.3 12.2 58 4.8 SSE 22 35 12 19 1007.6 1007.3 0.0
17/10:30am 20.9 16.5 11.8 56 5.1 SE 26 37 14 20 1007.4 1007.1 0.0
17/10:00am 20.8 15.8 12.2 58 4.9 SE 30 43 16 23 1007.0 1006.7 0.0
17/09:35am 20.9 16.7 13.6 63 4.2 SSE 28 46 15 25 1006.8 1006.5 0.0
17/09:30am 20.2 16.5 12.7 62 4.2 SSE 24 41 13 22 1006.8 1006.5 0.0
17/09:00am 20.7 17.8 13.9 65 4.0 SSE 22 46 12 25 1006.5 1006.2 0.0

Latest Capital City Observations: Canberra | Sydney | Melbourne | Brisbane | Adelaide | Perth | Hobart | Darwin

Other Formats:

Comma delimited format used in spreadsheet applications
http://www.bom.gov.au/fwo/IDN60901/IDN60901.95761.axf

JavaScript Object Notation format (JSON) in row-major order
http://www.bom.gov.au/fwo/IDN60901/IDN60901.95761.json